createdAt,value
2022-10-21T00:00:59.578Z,7.76
2022-10-21T00:03:39.559Z,7.84
2022-10-21T00:06:09.640Z,7.89
2022-10-21T00:08:38.777Z,7.80
2022-10-21T00:11:08.531Z,7.78
2022-10-21T00:13:39.874Z,7.78
2022-10-21T00:16:14.977Z,7.76
2022-10-21T00:18:45.614Z,7.83
2022-10-21T00:21:17.490Z,8.00
2022-10-21T00:23:45.775Z,7.99
2022-10-21T00:26:14.946Z,7.98
2022-10-21T00:28:43.345Z,7.94
2022-10-21T00:31:14.664Z,7.80
2022-10-21T00:33:43.141Z,7.71
2022-10-21T00:36:15.153Z,7.75
2022-10-21T00:38:46.574Z,7.78
2022-10-21T00:41:16.631Z,7.62
2022-10-21T00:43:58.798Z,7.52
2022-10-21T00:46:39.727Z,7.51
2022-10-21T00:49:16.615Z,7.60
2022-10-21T00:51:48.190Z,7.64
2022-10-21T00:54:18.062Z,7.69
2022-10-21T00:56:47.857Z,7.75
2022-10-21T00:59:16.675Z,7.65
2022-10-21T01:01:44.609Z,7.42
2022-10-21T01:04:12.554Z,7.27
2022-10-21T01:06:41.093Z,7.17
2022-10-21T01:09:09.392Z,7.17
2022-10-21T01:11:43.780Z,7.07
2022-10-21T01:17:45.748Z,7.03
2022-10-21T01:20:26.008Z,6.90
2022-10-21T01:23:27.327Z,6.74
2022-10-21T01:26:04.602Z,6.64
2022-10-21T01:28:51.606Z,6.69
2022-10-21T01:31:47.063Z,6.73
2022-10-21T01:34:24.263Z,6.62
2022-10-21T01:37:01.269Z,6.58
2022-10-21T01:39:54.332Z,6.58
2022-10-21T01:42:34.685Z,6.54
2022-10-21T01:45:19.155Z,6.63
2022-10-21T01:47:51.521Z,6.87
2022-10-21T01:50:26.442Z,7.02
2022-10-21T01:53:06.821Z,7.02
2022-10-21T01:55:37.368Z,7.05
2022-10-21T01:58:09.668Z,7.17
2022-10-21T02:00:39.419Z,7.32
2022-10-21T02:03:12.027Z,7.54
2022-10-21T02:05:40.294Z,7.70
2022-10-21T02:08:08.453Z,7.79
2022-10-21T02:10:41.988Z,7.84
2022-10-21T02:13:13.208Z,7.84
2022-10-21T02:15:43.327Z,7.82
2022-10-21T02:18:24.586Z,7.76
2022-10-21T02:20:59.755Z,7.58
2022-10-21T02:23:49.444Z,7.46
2022-10-21T02:26:17.901Z,7.31
2022-10-21T02:28:46.817Z,7.15
2022-10-21T02:31:39.748Z,7.01
2022-10-21T02:34:30.272Z,6.95
2022-10-21T02:37:31.729Z,7.04
2022-10-21T02:40:13.528Z,7.13
2022-10-21T02:42:50.958Z,7.21
2022-10-21T02:45:19.446Z,7.31
2022-10-21T02:47:48.411Z,7.37
2022-10-21T02:50:16.801Z,7.42
2022-10-21T02:52:44.741Z,7.30
2022-10-21T02:55:14.963Z,7.42
2022-10-21T02:57:42.869Z,7.53
2022-10-21T03:00:11.782Z,7.61
2022-10-21T03:02:39.740Z,7.68
2022-10-21T03:05:09.461Z,7.67
2022-10-21T03:07:37.631Z,7.73
2022-10-21T03:10:06.129Z,7.77
2022-10-21T03:12:34.127Z,7.89
2022-10-21T03:15:02.325Z,7.88
2022-10-21T03:17:30.356Z,8.01
2022-10-21T03:19:58.381Z,8.03
2022-10-21T03:22:26.496Z,7.92
2022-10-21T03:24:54.302Z,7.95
2022-10-21T03:27:22.868Z,8.04
2022-10-21T03:29:50.866Z,8.07
2022-10-21T03:32:18.852Z,8.10
2022-10-21T03:34:46.994Z,8.10
2022-10-21T03:37:14.979Z,8.14
2022-10-21T03:39:43.591Z,8.22
2022-10-21T03:42:11.351Z,8.29
2022-10-21T03:44:40.110Z,8.16
2022-10-21T03:47:08.629Z,8.10
2022-10-21T03:49:36.437Z,8.03
2022-10-21T03:52:04.445Z,7.97
2022-10-21T03:54:32.478Z,7.86
2022-10-21T03:57:00.867Z,7.87
2022-10-21T03:59:28.781Z,7.85
2022-10-21T04:01:57.946Z,7.68
2022-10-21T04:04:25.933Z,7.76
2022-10-21T04:06:55.126Z,7.73
2022-10-21T04:09:23.087Z,7.86
2022-10-21T04:11:51.414Z,8.09
2022-10-21T04:14:20.238Z,8.10
2022-10-21T04:16:53.567Z,7.99
2022-10-21T04:19:30.286Z,8.06
2022-10-21T04:21:59.638Z,8.24
2022-10-21T04:24:27.889Z,8.40
2022-10-21T04:26:56.071Z,8.49
2022-10-21T04:29:24.654Z,8.46
2022-10-21T04:31:52.745Z,8.50
2022-10-21T04:34:20.802Z,8.51
2022-10-21T04:36:49.344Z,8.59
2022-10-21T04:39:18.141Z,8.73
2022-10-21T04:41:48.362Z,8.89
2022-10-21T04:44:16.264Z,9.01
2022-10-21T04:46:45.258Z,9.12
2022-10-21T04:49:13.708Z,9.18
2022-10-21T04:51:42.221Z,9.22
2022-10-21T04:54:10.254Z,9.11
2022-10-21T04:56:39.196Z,8.97
2022-10-21T04:59:07.704Z,8.77
2022-10-21T05:01:35.978Z,8.76
2022-10-21T05:04:03.966Z,8.85
2022-10-21T05:06:32.130Z,8.95
2022-10-21T05:09:00.382Z,8.86
2022-10-21T05:11:28.899Z,8.70
2022-10-21T05:13:56.991Z,8.51
2022-10-21T05:16:25.316Z,8.32
2022-10-21T05:18:53.603Z,8.39
2022-10-21T05:21:21.689Z,8.45
2022-10-21T05:23:50.258Z,8.51
2022-10-21T05:26:18.828Z,8.65
2022-10-21T05:28:47.190Z,8.65
2022-10-21T05:31:15.302Z,8.67
2022-10-21T05:33:43.269Z,8.60
2022-10-21T05:36:11.454Z,8.60
2022-10-21T05:38:39.657Z,8.69
2022-10-21T05:41:08.229Z,8.64
2022-10-21T05:43:38.775Z,8.67
2022-10-21T05:46:08.785Z,8.66
2022-10-21T05:48:37.948Z,8.72
2022-10-21T05:51:06.747Z,8.65
2022-10-21T05:53:35.298Z,8.77
2022-10-21T05:56:06.791Z,8.76
2022-10-21T05:58:36.016Z,8.93
2022-10-21T06:01:04.421Z,9.10
2022-10-21T06:03:35.026Z,9.18
2022-10-21T06:06:05.756Z,9.23
2022-10-21T06:08:35.910Z,9.26
2022-10-21T06:11:13.784Z,9.28
2022-10-21T06:13:43.007Z,9.31
2022-10-21T06:16:13.140Z,9.20
2022-10-21T06:18:42.270Z,9.19
2022-10-21T06:21:11.397Z,9.08
2022-10-21T06:23:40.362Z,9.03
2022-10-21T06:26:13.767Z,9.01
2022-10-21T06:28:43.630Z,9.07
2022-10-21T06:31:18.958Z,9.27
2022-10-21T06:33:47.988Z,9.44
2022-10-21T06:36:17.168Z,9.56
2022-10-21T06:38:49.172Z,9.59
2022-10-21T06:41:20.329Z,9.56
2022-10-21T06:43:48.866Z,9.64
2022-10-21T06:46:17.829Z,9.79
2022-10-21T06:48:45.738Z,10.02
2022-10-21T06:51:20.489Z,10.05
2022-10-21T06:53:56.679Z,10.27
2022-10-21T06:56:26.695Z,10.21
2022-10-21T06:58:57.865Z,10.34
2022-10-21T07:01:48.122Z,10.45
2022-10-21T07:04:21.630Z,10.82
2022-10-21T07:06:49.676Z,10.96
2022-10-21T07:09:18.066Z,11.19
2022-10-21T07:11:46.928Z,11.26
2022-10-21T07:14:15.274Z,11.48
2022-10-21T07:16:43.766Z,11.74
2022-10-21T07:19:11.779Z,11.76
2022-10-21T07:21:39.999Z,11.72
2022-10-21T07:24:08.103Z,11.73
2022-10-21T07:26:36.069Z,11.91
2022-10-21T07:29:04.965Z,11.87
2022-10-21T07:31:36.610Z,11.95
2022-10-21T07:34:06.626Z,12.03
2022-10-21T07:36:40.640Z,12.09
2022-10-21T07:39:12.899Z,12.10
2022-10-21T07:41:44.869Z,12.11
2022-10-21T07:44:13.558Z,12.03
2022-10-21T07:46:42.911Z,11.90
2022-10-21T07:49:12.781Z,11.89
2022-10-21T07:51:41.628Z,11.87
2022-10-21T07:54:10.295Z,11.82
2022-10-21T07:56:45.397Z,11.82
2022-10-21T07:59:14.151Z,11.77
2022-10-21T08:04:24.846Z,11.53
2022-10-21T08:06:53.560Z,11.63
2022-10-21T08:09:22.151Z,11.78
2022-10-21T08:11:50.161Z,12.08
2022-10-21T08:14:18.298Z,12.15
2022-10-21T08:16:46.409Z,12.15
2022-10-21T08:19:20.402Z,12.23
2022-10-21T08:21:50.561Z,12.31
2022-10-21T08:24:18.905Z,12.39
2022-10-21T08:26:47.176Z,12.49
2022-10-21T08:29:15.567Z,12.69
2022-10-21T08:31:43.520Z,12.90
2022-10-21T08:34:11.678Z,13.09
2022-10-21T08:36:40.392Z,13.22
2022-10-21T08:39:09.376Z,13.23
2022-10-21T08:41:54.500Z,13.35
2022-10-21T08:44:31.733Z,13.55
2022-10-21T08:47:11.384Z,13.61
2022-10-21T08:50:05.502Z,13.96
2022-10-21T08:52:45.371Z,14.21
2022-10-21T08:55:37.922Z,14.42
2022-10-21T08:58:06.696Z,14.23
2022-10-21T09:00:44.922Z,14.47
2022-10-21T09:03:13.677Z,14.63
2022-10-21T09:05:51.272Z,14.75
2022-10-21T09:08:42.096Z,15.00
2022-10-21T09:11:21.863Z,15.25
2022-10-21T09:14:05.300Z,15.60
2022-10-21T09:16:58.309Z,15.92
2022-10-21T09:19:44.759Z,16.07
2022-10-21T09:22:45.038Z,16.15
2022-10-21T09:25:24.743Z,16.66
2022-10-21T09:27:56.972Z,16.60
2022-10-21T09:30:26.323Z,16.65
2022-10-21T09:33:00.272Z,16.72
2022-10-21T09:35:35.687Z,16.66
2022-10-21T09:38:27.047Z,16.71
2022-10-21T09:41:03.723Z,16.96
2022-10-21T09:43:33.257Z,17.15
2022-10-21T09:46:01.656Z,17.28
2022-10-21T09:49:16.276Z,17.21
2022-10-21T09:51:38.569Z,17.21
2022-10-21T09:54:17.240Z,17.33
2022-10-21T09:57:12.186Z,17.36
2022-10-21T09:59:51.972Z,17.48
2022-10-21T10:02:48.419Z,17.76
2022-10-21T10:05:44.500Z,17.83
2022-10-21T10:08:33.324Z,18.21
2022-10-21T10:11:05.558Z,18.29
2022-10-21T10:13:34.987Z,18.32
2022-10-21T10:16:27.067Z,18.51
2022-10-21T10:19:24.257Z,18.48
2022-10-21T10:22:28.917Z,18.38
2022-10-21T10:25:17.235Z,18.45
2022-10-21T10:28:00.684Z,18.55
2022-10-21T10:30:35.754Z,18.65
2022-10-21T10:33:09.007Z,18.75
2022-10-21T10:35:38.983Z,18.64
2022-10-21T10:38:07.356Z,18.73
2022-10-21T10:40:43.543Z,18.79
2022-10-21T10:43:20.899Z,18.92
2022-10-21T10:45:56.775Z,19.03
2022-10-21T10:48:43.507Z,18.80
2022-10-21T10:51:32.986Z,18.72
2022-10-21T10:54:08.894Z,18.69
2022-10-21T10:56:51.437Z,18.59
2022-10-21T10:59:32.834Z,18.65
2022-10-21T11:02:40.186Z,18.69
2022-10-21T11:05:31.789Z,19.01
2022-10-21T11:08:07.151Z,19.14
2022-10-21T11:11:12.557Z,18.98
2022-10-21T11:13:42.294Z,19.04
2022-10-21T11:16:45.109Z,19.29
2022-10-21T11:19:40.357Z,18.98
2022-10-21T11:22:17.758Z,19.11
2022-10-21T11:25:05.644Z,19.32
2022-10-21T11:27:55.407Z,19.53
2022-10-21T11:30:48.615Z,19.75
2022-10-21T11:33:19.697Z,19.91
2022-10-21T11:36:10.334Z,19.88
2022-10-21T11:39:19.305Z,19.72
2022-10-21T11:42:06.863Z,19.79
2022-10-21T11:44:53.821Z,19.63
2022-10-21T11:47:32.175Z,19.60
2022-10-21T11:50:21.413Z,19.79
2022-10-21T11:53:16.157Z,19.78
2022-10-21T11:56:27.721Z,19.80
2022-10-21T11:59:21.170Z,19.79
2022-10-21T12:02:01.826Z,19.84
2022-10-21T12:04:45.189Z,20.07
2022-10-21T12:07:31.869Z,19.98
2022-10-21T12:10:10.263Z,20.02
2022-10-21T12:12:46.844Z,20.18
2022-10-21T12:15:21.536Z,20.24
2022-10-21T12:17:50.713Z,20.25
2022-10-21T12:20:28.354Z,20.51
2022-10-21T12:23:04.994Z,20.41
2022-10-21T12:26:18.301Z,20.48
2022-10-21T12:28:58.686Z,20.51
2022-10-21T12:31:49.376Z,20.43
2022-10-21T12:34:18.647Z,20.58
2022-10-21T12:36:52.014Z,20.76
2022-10-21T12:39:35.680Z,20.77
2022-10-21T12:42:13.788Z,20.80
2022-10-21T12:44:50.280Z,20.57
2022-10-21T12:47:29.010Z,20.69
2022-10-21T12:50:24.885Z,20.47
2022-10-21T12:53:27.859Z,20.39
2022-10-21T12:56:02.630Z,20.34
2022-10-21T12:58:44.398Z,20.34
2022-10-21T13:01:47.152Z,20.34
2022-10-21T13:04:35.667Z,20.47
2022-10-21T13:07:15.890Z,20.52
2022-10-21T13:10:09.574Z,20.72
2022-10-21T13:12:38.737Z,20.72
2022-10-21T13:15:23.181Z,20.80
2022-10-21T13:17:56.530Z,21.04
2022-10-21T13:20:25.716Z,21.29
2022-10-21T13:23:15.873Z,21.60
2022-10-21T13:25:45.544Z,21.56
2022-10-21T13:28:14.600Z,21.58
2022-10-21T13:30:50.058Z,21.30
2022-10-21T13:33:23.671Z,21.26
2022-10-21T13:36:03.504Z,21.53
2022-10-21T13:38:37.371Z,21.57
2022-10-21T13:41:20.278Z,21.31
2022-10-21T13:43:55.136Z,21.33
2022-10-21T13:46:40.711Z,21.17
2022-10-21T13:49:34.036Z,21.13
2022-10-21T13:52:06.349Z,21.03
2022-10-21T13:54:36.165Z,20.86
2022-10-21T13:57:08.779Z,20.62
2022-10-21T13:59:37.307Z,20.70
2022-10-21T14:02:05.385Z,20.52
2022-10-21T14:04:40.563Z,20.46
2022-10-21T14:07:18.105Z,20.38
2022-10-21T14:09:50.082Z,20.32
2022-10-21T14:12:33.860Z,20.32
2022-10-21T14:15:07.582Z,20.37
2022-10-21T14:17:42.494Z,20.31
2022-10-21T14:20:18.564Z,20.13
2022-10-21T14:22:54.141Z,20.13
2022-10-21T14:25:25.686Z,20.10
2022-10-21T14:27:59.294Z,20.08
2022-10-21T14:30:32.436Z,20.02
2022-10-21T14:33:03.750Z,20.02
2022-10-21T14:35:32.911Z,19.93
2022-10-21T14:38:22.765Z,19.84
2022-10-21T14:41:05.880Z,19.81
2022-10-21T14:43:44.129Z,19.73
2022-10-21T14:46:22.149Z,19.56
2022-10-21T14:49:04.943Z,19.54
2022-10-21T14:51:39.193Z,19.49
2022-10-21T14:54:21.222Z,19.47
2022-10-21T14:56:51.393Z,19.20
2022-10-21T14:59:26.811Z,19.15
2022-10-21T15:01:59.398Z,19.10
2022-10-21T15:04:42.752Z,19.03
2022-10-21T15:09:58.519Z,18.87
2022-10-21T15:12:27.393Z,18.89
2022-10-21T15:14:58.997Z,18.87
2022-10-21T15:18:14.606Z,18.77
2022-10-21T15:20:58.441Z,18.73
2022-10-21T15:23:39.227Z,18.68
2022-10-21T15:26:26.583Z,18.48
2022-10-21T15:28:57.750Z,18.44
2022-10-21T15:31:29.615Z,18.41
2022-10-21T15:33:59.026Z,18.40
2022-10-21T15:36:28.397Z,18.46
2022-10-21T15:38:57.809Z,18.42
2022-10-21T15:41:29.632Z,18.35
2022-10-21T15:44:05.958Z,18.23
2022-10-21T15:46:42.412Z,18.13
2022-10-21T15:49:25.470Z,18.06
2022-10-21T15:51:54.764Z,17.95
2022-10-21T15:54:24.025Z,17.79
2022-10-21T15:56:55.375Z,17.71
2022-10-21T15:59:31.804Z,17.58
2022-10-21T16:02:01.118Z,17.53
2022-10-21T16:04:30.967Z,17.56
2022-10-21T16:07:06.205Z,17.34
2022-10-21T16:09:35.597Z,17.33
2022-10-21T16:12:06.337Z,17.42
2022-10-21T16:14:36.762Z,17.43
2022-10-21T16:17:05.864Z,17.41
2022-10-21T16:19:34.752Z,17.33
2022-10-21T16:22:04.670Z,17.28
2022-10-21T16:24:34.708Z,17.20
2022-10-21T16:27:04.286Z,17.10
2022-10-21T16:29:33.785Z,17.14
2022-10-21T16:32:02.737Z,17.10
2022-10-21T16:34:31.420Z,16.95
2022-10-21T16:37:01.676Z,16.84
2022-10-21T16:39:30.804Z,16.83
2022-10-21T16:42:02.334Z,16.91
2022-10-21T16:44:31.879Z,16.89
2022-10-21T16:47:00.633Z,16.88
2022-10-21T16:49:29.773Z,16.85
2022-10-21T16:52:01.043Z,16.86
2022-10-21T16:54:29.687Z,16.84
2022-10-21T16:57:01.220Z,16.92
2022-10-21T16:59:45.547Z,16.94
2022-10-21T17:02:40.014Z,16.81
2022-10-21T17:05:13.153Z,16.68
2022-10-21T17:07:42.422Z,16.56
2022-10-21T17:10:11.588Z,16.49
2022-10-21T17:12:44.050Z,16.49
2022-10-21T17:15:20.342Z,16.49
2022-10-21T17:17:49.457Z,16.44
2022-10-21T17:20:18.742Z,16.49
2022-10-21T17:22:47.454Z,16.58
2022-10-21T17:25:23.737Z,16.66
2022-10-21T17:27:52.738Z,16.64
2022-10-21T17:30:27.004Z,16.65
2022-10-21T17:33:00.616Z,16.74
2022-10-21T17:35:30.907Z,16.82
2022-10-21T17:37:59.775Z,16.94
2022-10-21T17:40:29.042Z,16.99
2022-10-21T17:43:03.812Z,16.96
2022-10-21T17:45:34.038Z,16.97
2022-10-21T17:48:03.327Z,16.96
2022-10-21T17:50:33.544Z,17.01
2022-10-21T17:53:02.644Z,17.00
2022-10-21T17:55:32.042Z,16.83
2022-10-21T17:58:01.874Z,16.62
2022-10-21T18:00:31.027Z,16.48
2022-10-21T18:03:03.511Z,16.25
2022-10-21T18:05:34.155Z,16.22
2022-10-21T18:08:03.988Z,16.37
2022-10-21T18:10:48.516Z,16.48
2022-10-21T18:13:19.006Z,16.53
2022-10-21T18:15:51.814Z,16.40
2022-10-21T18:18:24.301Z,16.24
2022-10-21T18:20:56.859Z,16.10
2022-10-21T18:23:26.127Z,16.01
2022-10-21T18:25:54.986Z,15.92
2022-10-21T18:28:24.283Z,15.85
2022-10-21T18:30:55.879Z,15.91
2022-10-21T18:33:25.730Z,15.78
2022-10-21T18:35:54.995Z,15.78
2022-10-21T18:38:28.677Z,15.79
2022-10-21T18:41:15.258Z,15.72
2022-10-21T18:43:53.319Z,15.78
2022-10-21T18:46:24.418Z,15.75
2022-10-21T18:48:54.340Z,15.74
2022-10-21T18:51:24.411Z,15.74
2022-10-21T18:53:57.697Z,15.83
2022-10-21T18:56:29.358Z,15.86
2022-10-21T18:59:03.046Z,15.90
2022-10-21T19:01:32.906Z,15.91
2022-10-21T19:04:03.059Z,15.88
2022-10-21T19:06:45.950Z,15.81
2022-10-21T19:09:17.475Z,15.99
2022-10-21T19:11:50.488Z,16.28
2022-10-21T19:14:20.400Z,16.28
2022-10-21T19:16:50.690Z,16.29
2022-10-21T19:19:26.117Z,16.27
2022-10-21T19:21:56.346Z,16.24
2022-10-21T19:24:34.545Z,16.12
2022-10-21T19:27:04.603Z,16.10
2022-10-21T19:29:34.039Z,16.22
2022-10-21T19:32:04.711Z,16.23
2022-10-21T19:34:39.329Z,16.17
2022-10-21T19:37:11.634Z,16.12
2022-10-21T19:39:43.037Z,16.13
2022-10-21T19:42:13.878Z,16.09
2022-10-21T19:44:43.872Z,16.06
2022-10-21T19:47:12.786Z,16.04
2022-10-21T19:49:43.125Z,16.16
2022-10-21T19:52:13.204Z,16.08
2022-10-21T19:54:43.483Z,16.14
2022-10-21T19:57:14.328Z,16.09
2022-10-21T19:59:43.737Z,16.00
2022-10-21T20:02:14.233Z,15.93
2022-10-21T20:04:44.050Z,15.92
2022-10-21T20:07:13.283Z,15.82
2022-10-21T20:09:44.216Z,15.69
2022-10-21T20:12:13.286Z,15.65
2022-10-21T20:14:44.029Z,15.78
2022-10-21T20:17:16.127Z,15.81
2022-10-21T20:19:52.147Z,15.87
2022-10-21T20:22:22.470Z,15.96
2022-10-21T20:24:52.396Z,16.00
2022-10-21T20:27:21.504Z,15.95
2022-10-21T20:29:52.210Z,15.82
2022-10-21T20:32:23.077Z,15.78
2022-10-21T20:34:53.207Z,15.80
2022-10-21T20:37:22.767Z,15.89
2022-10-21T20:39:51.982Z,15.71
2022-10-21T20:42:21.073Z,15.72
2022-10-21T20:44:50.487Z,15.83
2022-10-21T20:47:19.746Z,15.76
2022-10-21T20:49:49.317Z,15.80
2022-10-21T20:52:19.243Z,15.80
2022-10-21T20:54:49.039Z,15.85
2022-10-21T20:57:21.333Z,15.84
2022-10-21T20:59:49.638Z,15.79
2022-10-21T21:02:18.290Z,15.90
2022-10-21T21:04:47.142Z,15.88
2022-10-21T21:07:17.476Z,15.80
2022-10-21T21:10:01.673Z,15.83
2022-10-21T21:12:32.565Z,15.84
2022-10-21T21:15:01.564Z,15.88
2022-10-21T21:17:30.564Z,15.78
2022-10-21T21:20:00.420Z,15.67
2022-10-21T21:22:29.708Z,15.70
2022-10-21T21:24:59.141Z,15.60
2022-10-21T21:27:29.831Z,15.55
2022-10-21T21:29:58.447Z,15.46
2022-10-21T21:32:28.134Z,15.56
2022-10-21T21:35:00.137Z,15.54
2022-10-21T21:37:31.574Z,15.53
2022-10-21T21:40:01.577Z,15.49
2022-10-21T21:42:31.373Z,15.45
2022-10-21T21:45:00.018Z,15.57
2022-10-21T21:47:29.229Z,15.49
2022-10-21T21:50:00.800Z,15.29
2022-10-21T21:52:29.926Z,15.27
2022-10-21T21:54:58.525Z,15.36
2022-10-21T21:57:29.218Z,15.49
2022-10-21T21:59:57.858Z,15.60
2022-10-21T22:02:26.407Z,15.64
2022-10-21T22:04:54.818Z,15.63
2022-10-21T22:07:22.937Z,15.65
2022-10-21T22:09:51.213Z,15.81
2022-10-21T22:12:23.065Z,15.85
2022-10-21T22:14:52.921Z,15.83
2022-10-21T22:17:21.463Z,15.84
2022-10-21T22:19:53.710Z,15.88
2022-10-21T22:22:22.698Z,15.88
2022-10-21T22:24:51.103Z,15.82
2022-10-21T22:27:19.439Z,15.72
2022-10-21T22:29:48.029Z,15.68
2022-10-21T22:32:18.406Z,15.66
2022-10-21T22:34:46.847Z,15.62
2022-10-21T22:37:16.146Z,15.69
2022-10-21T22:39:44.531Z,15.70
2022-10-21T22:42:12.910Z,15.75
2022-10-21T22:44:41.020Z,15.77
2022-10-21T22:47:09.613Z,15.84
2022-10-21T22:49:38.136Z,15.81
2022-10-21T22:52:06.593Z,15.72
2022-10-21T22:54:49.035Z,15.78
2022-10-21T22:57:18.293Z,15.81
2022-10-21T22:59:52.857Z,15.81
2022-10-21T23:02:22.330Z,15.70
2022-10-21T23:04:50.695Z,15.68
2022-10-21T23:07:18.938Z,15.67
2022-10-21T23:09:47.615Z,15.60
2022-10-21T23:12:15.830Z,15.71
2022-10-21T23:14:44.109Z,15.63
2022-10-21T23:17:13.024Z,15.70
2022-10-21T23:19:41.250Z,15.75
2022-10-21T23:22:10.882Z,15.79
2022-10-21T23:24:38.887Z,15.79
2022-10-21T23:27:07.515Z,15.70
2022-10-21T23:29:36.090Z,15.63
2022-10-21T23:32:04.857Z,15.68
2022-10-21T23:34:32.964Z,15.71
2022-10-21T23:37:01.018Z,15.63
2022-10-21T23:39:29.531Z,15.62
2022-10-21T23:41:57.780Z,15.59
2022-10-21T23:44:29.400Z,15.47
2022-10-21T23:46:57.618Z,15.43
2022-10-21T23:49:25.703Z,15.42
2022-10-21T23:51:54.115Z,15.44
2022-10-21T23:54:22.288Z,15.51
2022-10-21T23:56:50.916Z,15.54
2022-10-21T23:59:19.195Z,15.47
